createdAt,value
2022-09-16T00:01:01.423Z,15.50
2022-09-16T00:03:29.762Z,15.40
2022-09-16T00:05:59.047Z,15.40
2022-09-16T00:08:26.944Z,15.40
2022-09-16T00:10:54.875Z,15.30
2022-09-16T00:13:22.793Z,15.30
2022-09-16T00:15:51.903Z,15.30
2022-09-16T00:18:20.524Z,15.20
2022-09-16T00:20:50.090Z,15.20
2022-09-16T00:23:20.459Z,15.10
2022-09-16T00:25:52.816Z,15.20
2022-09-16T00:28:21.611Z,15.10
2022-09-16T00:30:50.084Z,15.10
2022-09-16T00:33:19.340Z,15.10
2022-09-16T00:35:47.244Z,15.00
2022-09-16T00:38:15.208Z,15.00
2022-09-16T00:40:48.720Z,15.00
2022-09-16T00:43:19.986Z,15.00
2022-09-16T00:45:55.665Z,15.00
2022-09-16T00:48:27.037Z,15.00
2022-09-16T00:51:00.497Z,15.00
2022-09-16T00:53:32.469Z,14.90
2022-09-16T00:56:07.134Z,14.90
2022-09-16T00:58:40.182Z,14.80
2022-09-16T01:01:08.211Z,14.80
2022-09-16T01:03:43.677Z,14.80
2022-09-16T01:06:13.899Z,14.90
2022-09-16T01:08:43.858Z,14.90
2022-09-16T01:11:13.552Z,14.90
2022-09-16T01:13:43.648Z,14.90
2022-09-16T01:16:17.729Z,15.00
2022-09-16T01:18:50.840Z,14.80
2022-09-16T01:21:47.532Z,14.80
2022-09-16T01:24:35.265Z,14.70
2022-09-16T01:27:40.589Z,14.60
2022-09-16T01:30:38.489Z,14.60
2022-09-16T01:33:13.449Z,14.60
2022-09-16T01:35:58.666Z,14.50
2022-09-16T01:38:39.506Z,14.60
2022-09-16T01:41:14.490Z,14.60
2022-09-16T01:43:54.623Z,14.60
2022-09-16T01:46:32.051Z,14.60
2022-09-16T01:49:09.167Z,14.60
2022-09-16T01:51:43.234Z,14.60
2022-09-16T01:54:19.913Z,14.60
2022-09-16T01:56:55.041Z,14.60
2022-09-16T01:59:29.934Z,14.60
2022-09-16T02:02:03.301Z,14.60
2022-09-16T02:04:35.927Z,14.60
2022-09-16T02:07:06.732Z,14.70
2022-09-16T02:09:38.743Z,14.60
2022-09-16T02:12:11.219Z,14.60
2022-09-16T02:14:42.161Z,14.50
2022-09-16T02:17:13.891Z,14.60
2022-09-16T02:19:44.640Z,14.60
2022-09-16T02:22:14.962Z,14.50
2022-09-16T02:24:46.224Z,14.50
2022-09-16T02:27:18.000Z,14.50
2022-09-16T02:29:49.779Z,14.50
2022-09-16T02:32:21.142Z,14.50
2022-09-16T02:34:52.722Z,14.40
2022-09-16T02:37:25.952Z,14.50
2022-09-16T02:39:57.898Z,14.50
2022-09-16T02:42:26.265Z,14.50
2022-09-16T02:44:54.789Z,14.50
2022-09-16T02:47:33.766Z,14.50
2022-09-16T02:50:06.018Z,14.40
2022-09-16T02:52:45.079Z,14.40
2022-09-16T02:55:21.604Z,14.40
2022-09-16T02:57:50.578Z,14.40
2022-09-16T03:00:18.691Z,14.40
2022-09-16T03:02:48.166Z,14.40
2022-09-16T03:05:16.118Z,14.40
2022-09-16T03:07:44.302Z,14.40
2022-09-16T03:10:14.944Z,14.40
2022-09-16T03:12:56.227Z,14.40
2022-09-16T03:15:45.357Z,14.30
2022-09-16T03:18:37.628Z,14.30
2022-09-16T03:21:17.374Z,14.30
2022-09-16T03:23:52.877Z,14.20
2022-09-16T03:26:28.848Z,14.20
2022-09-16T03:29:11.538Z,14.20
2022-09-16T03:31:48.034Z,14.10
2022-09-16T03:34:21.606Z,14.10
2022-09-16T03:36:54.334Z,14.00
2022-09-16T03:39:23.281Z,14.10
2022-09-16T03:41:52.085Z,14.10
2022-09-16T03:44:19.990Z,14.20
2022-09-16T03:46:48.446Z,14.20
2022-09-16T03:49:18.006Z,14.20
2022-09-16T03:51:45.930Z,14.10
2022-09-16T03:54:13.839Z,14.10
2022-09-16T03:56:41.742Z,14.10
2022-09-16T03:59:09.691Z,14.20
2022-09-16T04:01:37.635Z,14.20
2022-09-16T04:04:05.810Z,14.20
2022-09-16T04:06:35.108Z,14.20
2022-09-16T04:09:04.373Z,14.20
2022-09-16T04:11:32.318Z,14.20
2022-09-16T04:14:00.525Z,14.20
2022-09-16T04:16:28.469Z,14.20
2022-09-16T04:18:56.380Z,14.20
2022-09-16T04:21:24.798Z,14.30
2022-09-16T04:23:54.603Z,14.20
2022-09-16T04:26:22.628Z,14.20
2022-09-16T04:28:54.158Z,14.10
2022-09-16T04:31:22.618Z,14.10
2022-09-16T04:33:50.883Z,14.00
2022-09-16T04:36:21.049Z,14.00
2022-09-16T04:38:50.044Z,14.00
2022-09-16T04:41:21.242Z,13.90
2022-09-16T04:43:53.200Z,13.90
2022-09-16T04:46:21.459Z,13.90
2022-09-16T04:48:49.949Z,14.00
2022-09-16T04:51:19.562Z,13.90
2022-09-16T04:53:48.125Z,13.90
2022-09-16T04:56:17.865Z,13.80
2022-09-16T04:58:48.547Z,13.80
2022-09-16T05:01:18.471Z,13.80
2022-09-16T05:03:48.414Z,13.70
2022-09-16T05:06:20.863Z,13.70
2022-09-16T05:08:49.012Z,13.80
2022-09-16T05:11:19.109Z,13.80
2022-09-16T05:13:48.431Z,13.80
2022-09-16T05:16:18.394Z,13.70
2022-09-16T05:18:47.982Z,13.70
2022-09-16T05:21:19.125Z,13.70
2022-09-16T05:23:47.975Z,13.70
2022-09-16T05:26:18.074Z,13.80
2022-09-16T05:28:46.138Z,13.90
2022-09-16T05:31:17.321Z,13.90
2022-09-16T05:33:46.943Z,13.80
2022-09-16T05:36:16.823Z,13.80
2022-09-16T05:39:04.614Z,13.70
2022-09-16T05:41:33.779Z,13.70
2022-09-16T05:44:02.563Z,13.80
2022-09-16T05:46:32.070Z,13.90
2022-09-16T05:49:00.126Z,13.90
2022-09-16T05:51:28.300Z,14.00
2022-09-16T05:53:56.524Z,14.00
2022-09-16T05:56:26.402Z,14.00
2022-09-16T05:58:55.821Z,14.10
2022-09-16T06:01:27.059Z,14.10
2022-09-16T06:03:56.495Z,14.20
2022-09-16T06:06:26.438Z,14.30
2022-09-16T06:08:56.182Z,14.50
2022-09-16T06:11:24.944Z,14.60
2022-09-16T06:13:56.616Z,14.60
2022-09-16T06:16:26.489Z,14.70
2022-09-16T06:18:57.155Z,14.70
2022-09-16T06:21:25.309Z,14.70
2022-09-16T06:23:53.832Z,14.60
2022-09-16T06:26:24.241Z,14.60
2022-09-16T06:28:53.917Z,14.70
2022-09-16T06:31:24.068Z,14.80
2022-09-16T06:33:52.732Z,15.00
2022-09-16T06:36:23.488Z,15.00
2022-09-16T06:38:51.812Z,15.10
2022-09-16T06:41:21.348Z,15.10
2022-09-16T06:43:51.149Z,15.30
2022-09-16T06:46:21.477Z,15.40
2022-09-16T06:48:51.361Z,15.50
2022-09-16T06:51:23.008Z,15.40
2022-09-16T06:53:52.276Z,15.30
2022-09-16T06:56:22.457Z,15.30
2022-09-16T06:58:52.977Z,15.30
2022-09-16T07:01:22.863Z,15.40
2022-09-16T07:03:52.195Z,15.50
2022-09-16T07:06:33.367Z,15.60
2022-09-16T07:09:12.073Z,15.70
2022-09-16T07:11:40.697Z,15.90
2022-09-16T07:14:10.165Z,15.80
2022-09-16T07:16:38.149Z,15.80
2022-09-16T07:19:06.555Z,15.80
2022-09-16T07:21:36.073Z,15.90
2022-09-16T07:24:05.336Z,15.90
2022-09-16T07:26:35.197Z,15.80
2022-09-16T07:29:06.405Z,15.80
2022-09-16T07:31:36.972Z,15.90
2022-09-16T07:34:06.855Z,16.10
2022-09-16T07:36:38.309Z,16.10
2022-09-16T07:39:07.370Z,16.10
2022-09-16T07:41:37.304Z,16.20
2022-09-16T07:44:07.011Z,16.20
2022-09-16T07:46:37.255Z,16.50
2022-09-16T07:49:08.674Z,17.40
2022-09-16T07:51:38.226Z,19.30
2022-09-16T07:54:08.540Z,21.10
2022-09-16T07:56:39.291Z,22.50
2022-09-16T07:59:11.040Z,22.60
2022-09-16T08:01:43.301Z,22.70
2022-09-16T08:04:12.181Z,23.40
2022-09-16T08:06:41.645Z,24.10
2022-09-16T08:09:36.780Z,24.70
2022-09-16T08:11:57.980Z,23.60
2022-09-16T08:14:26.310Z,22.50
2022-09-16T08:16:54.315Z,21.70
2022-09-16T08:19:23.294Z,21.60
2022-09-16T08:21:52.570Z,21.90
2022-09-16T08:24:20.559Z,21.40
2022-09-16T08:26:48.755Z,20.90
2022-09-16T08:29:17.206Z,20.10
2022-09-16T08:31:45.594Z,19.30
2022-09-16T08:34:13.616Z,19.70
2022-09-16T08:36:41.516Z,21.80
2022-09-16T08:39:11.757Z,22.50
2022-09-16T08:42:03.035Z,23.40
2022-09-16T08:44:39.519Z,22.30
2022-09-16T08:47:16.149Z,21.00
2022-09-16T08:49:46.862Z,19.90
2022-09-16T08:52:19.772Z,19.50
2022-09-16T08:54:53.974Z,19.30
2022-09-16T08:57:24.049Z,19.40
2022-09-16T08:59:56.753Z,20.20
2022-09-16T09:02:37.252Z,22.30
2022-09-16T09:05:15.950Z,23.80
2022-09-16T09:08:06.080Z,25.10
2022-09-16T09:10:43.584Z,25.10
2022-09-16T09:13:21.100Z,24.90
2022-09-16T09:15:55.472Z,25.00
2022-09-16T09:18:34.709Z,24.70
2022-09-16T09:21:15.130Z,24.70
2022-09-16T09:23:53.981Z,25.10
2022-09-16T09:26:27.671Z,25.00
2022-09-16T09:29:26.541Z,23.90
2022-09-16T09:32:04.081Z,22.90
2022-09-16T09:34:43.307Z,22.00
2022-09-16T09:37:25.066Z,21.60
2022-09-16T09:40:03.188Z,21.00
2022-09-16T09:42:36.852Z,20.60
2022-09-16T09:45:10.550Z,20.10
2022-09-16T09:47:43.489Z,19.70
2022-09-16T09:50:18.665Z,19.50
2022-09-16T09:52:52.348Z,19.40
2022-09-16T09:55:24.687Z,19.50
2022-09-16T09:58:05.112Z,19.40
2022-09-16T10:00:33.541Z,19.50
2022-09-16T10:03:07.880Z,19.70
2022-09-16T10:05:36.176Z,20.50
2022-09-16T10:08:10.841Z,20.60
2022-09-16T10:10:48.714Z,20.20
2022-09-16T10:13:19.357Z,19.70
2022-09-16T10:15:53.371Z,19.40
2022-09-16T10:18:27.492Z,19.40
2022-09-16T10:21:03.157Z,19.40
2022-09-16T10:23:31.393Z,19.30
2022-09-16T10:26:08.427Z,19.00
2022-09-16T10:28:37.722Z,18.70
2022-09-16T10:31:08.522Z,18.60
2022-09-16T10:33:42.586Z,18.40
2022-09-16T10:36:19.888Z,18.50
2022-09-16T10:38:53.454Z,18.70
2022-09-16T10:41:23.725Z,18.80
2022-09-16T10:43:54.890Z,18.80
2022-09-16T10:46:22.864Z,18.80
2022-09-16T10:48:54.125Z,18.80
2022-09-16T10:51:25.566Z,18.60
2022-09-16T10:53:56.161Z,18.60
2022-09-16T10:56:29.206Z,18.60
2022-09-16T10:59:06.561Z,18.60
2022-09-16T11:01:46.651Z,18.60
2022-09-16T11:04:44.437Z,18.70
2022-09-16T11:07:22.590Z,18.70
2022-09-16T11:10:00.461Z,18.80
2022-09-16T11:12:48.298Z,18.90
2022-09-16T11:15:32.974Z,19.00
2022-09-16T11:18:21.207Z,18.80
2022-09-16T11:21:01.955Z,18.80
2022-09-16T11:23:46.712Z,18.80
2022-09-16T11:26:20.956Z,18.60
2022-09-16T11:29:06.674Z,18.70
2022-09-16T11:31:44.872Z,18.60
2022-09-16T11:34:26.913Z,18.70
2022-09-16T11:37:07.029Z,18.80
2022-09-16T11:39:47.490Z,18.90
2022-09-16T11:42:23.881Z,19.00
2022-09-16T11:45:01.657Z,19.20
2022-09-16T11:47:50.771Z,19.30
2022-09-16T11:50:31.425Z,19.30
2022-09-16T11:53:15.529Z,19.10
2022-09-16T11:55:51.365Z,18.90
2022-09-16T11:58:31.130Z,18.90
2022-09-16T12:01:04.949Z,18.70
2022-09-16T12:03:43.456Z,18.30
2022-09-16T12:06:15.975Z,16.90
2022-09-16T12:08:54.293Z,15.90
2022-09-16T12:11:27.248Z,15.30
2022-09-16T12:14:07.410Z,15.00
2022-09-16T12:16:42.797Z,14.90
2022-09-16T12:19:16.837Z,14.90
2022-09-16T12:21:49.750Z,14.90
2022-09-16T12:24:25.421Z,15.20
2022-09-16T12:27:01.053Z,15.40
2022-09-16T12:29:34.434Z,15.70
2022-09-16T12:32:07.218Z,16.20
2022-09-16T12:34:43.071Z,16.60
2022-09-16T12:37:37.351Z,16.80
2022-09-16T12:40:07.612Z,16.80
2022-09-16T12:43:04.501Z,17.30
2022-09-16T12:45:48.408Z,17.90
2022-09-16T12:48:39.082Z,18.10
2022-09-16T12:51:25.728Z,18.10
2022-09-16T12:54:26.459Z,17.80
2022-09-16T12:57:16.209Z,17.60
2022-09-16T13:00:06.269Z,17.40
2022-09-16T13:02:38.554Z,17.30
2022-09-16T13:05:14.878Z,17.20
2022-09-16T13:07:48.866Z,17.20
2022-09-16T13:10:26.452Z,17.20
2022-09-16T13:13:05.276Z,17.20
2022-09-16T13:15:35.788Z,17.20
2022-09-16T13:18:21.862Z,17.40
2022-09-16T13:20:53.561Z,17.60
2022-09-16T13:23:25.777Z,17.60
2022-09-16T13:26:00.041Z,17.80
2022-09-16T13:28:37.048Z,18.00
2022-09-16T13:31:33.948Z,18.20
2022-09-16T13:34:16.489Z,18.40
2022-09-16T13:36:44.670Z,18.60
2022-09-16T13:39:16.112Z,18.60
2022-09-16T13:41:45.593Z,18.70
2022-09-16T13:44:40.079Z,18.70
2022-09-16T13:47:18.147Z,18.90
2022-09-16T13:49:51.006Z,19.00
2022-09-16T13:52:25.356Z,19.30
2022-09-16T13:55:12.718Z,19.70
2022-09-16T13:57:58.356Z,19.60
2022-09-16T14:00:33.702Z,19.50
2022-09-16T14:03:28.200Z,19.00
2022-09-16T14:06:12.875Z,18.50
2022-09-16T14:08:51.508Z,17.90
2022-09-16T14:11:32.730Z,17.40
2022-09-16T14:14:06.221Z,17.00
2022-09-16T14:16:36.437Z,16.90
2022-09-16T14:19:07.056Z,16.90
2022-09-16T14:21:35.912Z,16.90
2022-09-16T14:24:18.708Z,16.90
2022-09-16T14:26:55.941Z,16.60
2022-09-16T14:29:27.134Z,16.50
2022-09-16T14:31:57.360Z,16.30
2022-09-16T14:34:29.341Z,16.20
2022-09-16T14:36:57.990Z,16.10
2022-09-16T14:39:27.823Z,16.10
2022-09-16T14:41:59.417Z,16.30
2022-09-16T14:44:33.575Z,16.60
2022-09-16T14:47:09.425Z,16.80
2022-09-16T14:49:41.105Z,16.90
2022-09-16T14:52:20.724Z,16.80
2022-09-16T14:54:48.775Z,16.60
2022-09-16T14:57:22.660Z,16.60
2022-09-16T14:59:51.936Z,16.60
2022-09-16T15:02:24.805Z,16.50
2022-09-16T15:04:58.104Z,16.40
2022-09-16T15:07:32.626Z,16.40
2022-09-16T15:10:06.329Z,16.40
2022-09-16T15:12:38.500Z,16.50
2022-09-16T15:15:15.356Z,16.60
2022-09-16T15:17:43.484Z,16.70
2022-09-16T15:20:22.396Z,16.90
2022-09-16T15:22:50.492Z,17.10
2022-09-16T15:25:23.922Z,17.40
2022-09-16T15:27:54.664Z,17.50
2022-09-16T15:30:24.879Z,17.50
2022-09-16T15:32:52.851Z,17.20
2022-09-16T15:35:25.466Z,16.70
2022-09-16T15:37:54.795Z,16.20
2022-09-16T15:40:31.465Z,15.80
2022-09-16T15:43:11.740Z,15.50
2022-09-16T15:45:40.355Z,15.10
2022-09-16T15:48:15.855Z,15.10
2022-09-16T15:50:49.071Z,15.00
2022-09-16T15:53:21.951Z,15.00
2022-09-16T15:55:59.974Z,14.90
2022-09-16T15:58:39.853Z,14.80
2022-09-16T16:01:14.873Z,14.70
2022-09-16T16:03:55.364Z,14.50
2022-09-16T16:06:46.145Z,14.30
2022-09-16T16:09:30.438Z,14.10
2022-09-16T16:12:00.066Z,13.80
2022-09-16T16:14:32.227Z,13.80
2022-09-16T16:17:12.758Z,13.80
2022-09-16T16:19:42.086Z,13.80
2022-09-16T16:22:10.026Z,13.90
2022-09-16T16:24:38.769Z,14.00
2022-09-16T16:27:07.714Z,14.10
2022-09-16T16:29:38.785Z,14.20
2022-09-16T16:32:08.868Z,14.30
2022-09-16T16:34:38.318Z,14.30
2022-09-16T16:37:07.381Z,14.40
2022-09-16T16:39:35.448Z,14.20
2022-09-16T16:42:05.437Z,14.20
2022-09-16T16:44:34.186Z,14.20
2022-09-16T16:47:03.818Z,14.20
2022-09-16T16:49:31.932Z,14.20
2022-09-16T16:51:59.840Z,14.20
2022-09-16T16:54:28.640Z,14.20
2022-09-16T16:56:57.297Z,14.10
2022-09-16T16:59:26.198Z,14.10
2022-09-16T17:01:56.221Z,14.10
2022-09-16T17:04:26.478Z,14.00
2022-09-16T17:07:21.451Z,13.90
2022-09-16T17:09:44.158Z,13.80
2022-09-16T17:12:12.865Z,13.60
2022-09-16T17:14:41.728Z,13.50
2022-09-16T17:17:09.620Z,13.40
2022-09-16T17:19:38.871Z,13.40
2022-09-16T17:22:06.774Z,13.30
2022-09-16T17:24:35.346Z,13.30
2022-09-16T17:27:04.146Z,13.10
2022-09-16T17:29:32.400Z,13.10
2022-09-16T17:32:02.802Z,13.00
2022-09-16T17:34:31.136Z,13.10
2022-09-16T17:37:00.594Z,13.00
2022-09-16T17:39:28.607Z,12.80
2022-09-16T17:41:57.428Z,12.80
2022-09-16T17:44:25.701Z,12.60
2022-09-16T17:46:53.970Z,12.50
2022-09-16T17:49:23.709Z,12.50
2022-09-16T17:51:53.745Z,12.40
2022-09-16T17:54:23.461Z,12.40
2022-09-16T17:56:51.423Z,12.30
2022-09-16T17:59:20.015Z,12.20
2022-09-16T18:01:49.064Z,12.20
2022-09-16T18:04:17.452Z,12.20
2022-09-16T18:06:47.228Z,12.10
2022-09-16T18:09:17.137Z,12.10
2022-09-16T18:11:46.667Z,12.00
2022-09-16T18:14:17.269Z,12.00
2022-09-16T18:16:48.226Z,12.00
2022-09-16T18:19:16.273Z,11.90
2022-09-16T18:21:44.226Z,11.80
2022-09-16T18:24:13.789Z,11.70
2022-09-16T18:26:42.916Z,11.70
2022-09-16T18:29:13.019Z,11.60
2022-09-16T18:31:43.628Z,11.50
2022-09-16T18:34:12.482Z,11.40
2022-09-16T18:36:40.714Z,11.40
2022-09-16T18:39:12.693Z,11.30
2022-09-16T18:41:41.980Z,11.30
2022-09-16T18:44:16.150Z,11.30
2022-09-16T18:46:44.424Z,11.20
2022-09-16T18:49:13.995Z,11.10
2022-09-16T18:51:49.888Z,11.00
2022-09-16T18:54:24.427Z,11.00
2022-09-16T18:56:52.962Z,10.90
2022-09-16T18:59:24.552Z,10.90
2022-09-16T19:01:54.182Z,11.00
2022-09-16T19:04:24.031Z,11.10
2022-09-16T19:06:53.457Z,11.10
2022-09-16T19:09:23.610Z,11.10
2022-09-16T19:11:54.855Z,11.00
2022-09-16T19:14:27.246Z,10.90
2022-09-16T19:16:55.370Z,10.90
2022-09-16T19:19:23.357Z,10.90
2022-09-16T19:21:51.679Z,10.90
2022-09-16T19:24:21.299Z,10.90
2022-09-16T19:26:51.058Z,10.80
2022-09-16T19:29:19.768Z,10.90
2022-09-16T19:31:51.772Z,10.90
2022-09-16T19:34:20.137Z,10.90
2022-09-16T19:36:48.073Z,10.90
2022-09-16T19:39:16.743Z,11.00
2022-09-16T19:41:45.051Z,11.00
2022-09-16T19:44:15.588Z,10.90
2022-09-16T19:46:44.800Z,11.00
2022-09-16T19:49:17.688Z,11.00
2022-09-16T19:51:45.617Z,10.90
2022-09-16T19:54:13.824Z,11.00
2022-09-16T19:56:43.522Z,11.00
2022-09-16T19:59:13.845Z,11.00
2022-09-16T20:01:41.792Z,10.90
2022-09-16T20:04:10.702Z,10.80
2022-09-16T20:06:41.626Z,10.90
2022-09-16T20:09:12.581Z,10.90
2022-09-16T20:11:42.788Z,10.90
2022-09-16T20:14:15.423Z,10.90
2022-09-16T20:16:43.821Z,10.90
2022-09-16T20:19:14.133Z,10.90
2022-09-16T20:21:44.132Z,10.90
2022-09-16T20:24:15.951Z,10.80
2022-09-16T20:26:43.861Z,10.80
2022-09-16T20:29:11.893Z,10.70
2022-09-16T20:31:40.256Z,10.80
2022-09-16T20:34:08.243Z,10.80
2022-09-16T20:36:39.059Z,10.70
2022-09-16T20:39:09.810Z,10.70
2022-09-16T20:41:39.304Z,10.70
2022-09-16T20:44:08.248Z,10.60
2022-09-16T20:46:38.603Z,10.60
2022-09-16T20:49:10.451Z,10.60
2022-09-16T20:51:38.787Z,10.60
2022-09-16T20:54:10.473Z,10.50
2022-09-16T20:56:40.108Z,10.40
2022-09-16T20:59:09.054Z,10.40
2022-09-16T21:01:38.077Z,10.40
2022-09-16T21:04:08.073Z,10.30
2022-09-16T21:06:37.380Z,10.30
2022-09-16T21:09:09.458Z,10.30
2022-09-16T21:11:44.529Z,10.40
2022-09-16T21:14:15.842Z,10.30
2022-09-16T21:16:45.398Z,10.40
2022-09-16T21:19:13.992Z,10.40
2022-09-16T21:21:44.587Z,10.40
2022-09-16T21:24:14.373Z,10.40
2022-09-16T21:26:43.888Z,10.40
2022-09-16T21:29:13.530Z,10.40
2022-09-16T21:31:43.245Z,10.40
2022-09-16T21:34:13.708Z,10.40
2022-09-16T21:36:41.671Z,10.40
2022-09-16T21:39:10.648Z,10.40
2022-09-16T21:41:39.956Z,10.40
2022-09-16T21:44:08.025Z,10.50
2022-09-16T21:46:41.756Z,10.60
2022-09-16T21:49:16.885Z,10.60
2022-09-16T21:51:44.894Z,10.60
2022-09-16T21:54:16.574Z,10.60
2022-09-16T21:56:49.484Z,10.60
2022-09-16T21:59:19.382Z,10.50
2022-09-16T22:01:47.396Z,10.50
2022-09-16T22:04:17.586Z,10.50
2022-09-16T22:06:46.343Z,10.50
2022-09-16T22:09:14.507Z,10.60
2022-09-16T22:11:42.815Z,10.60
2022-09-16T22:14:12.562Z,10.50
2022-09-16T22:16:41.576Z,10.40
2022-09-16T22:19:12.136Z,10.40
2022-09-16T22:21:42.319Z,10.40
2022-09-16T22:24:10.965Z,10.40
2022-09-16T22:26:39.569Z,10.30
2022-09-16T22:29:09.282Z,10.30
2022-09-16T22:31:41.282Z,10.30
2022-09-16T22:34:09.688Z,10.20
2022-09-16T22:36:39.558Z,10.30
2022-09-16T22:39:11.869Z,10.20
2022-09-16T22:41:39.963Z,10.10
2022-09-16T22:44:07.882Z,10.20
2022-09-16T22:46:40.466Z,10.20
2022-09-16T22:49:08.510Z,10.20
2022-09-16T22:51:36.432Z,10.20
2022-09-16T22:54:04.901Z,10.10
2022-09-16T22:56:34.190Z,10.10
2022-09-16T22:59:04.675Z,10.10
2022-09-16T23:01:35.353Z,10.00
2022-09-16T23:04:06.239Z,10.00
2022-09-16T23:06:35.437Z,10.00
2022-09-16T23:09:04.109Z,10.00
2022-09-16T23:11:34.326Z,10.00
2022-09-16T23:14:02.904Z,10.00
2022-09-16T23:16:32.801Z,10.10
2022-09-16T23:19:03.083Z,10.10
2022-09-16T23:21:32.470Z,10.00
2022-09-16T23:24:02.006Z,10.00
2022-09-16T23:26:32.741Z,10.00
2022-09-16T23:29:02.293Z,10.00
2022-09-16T23:31:32.713Z,10.00
2022-09-16T23:34:01.714Z,10.10
2022-09-16T23:36:30.066Z,10.10
2022-09-16T23:39:00.480Z,10.10
2022-09-16T23:41:29.227Z,10.10
2022-09-16T23:43:57.685Z,10.10
2022-09-16T23:46:28.650Z,10.20
2022-09-16T23:48:57.016Z,10.10
2022-09-16T23:51:28.431Z,10.10
2022-09-16T23:53:57.163Z,10.10
2022-09-16T23:56:27.424Z,10.10
2022-09-16T23:58:58.956Z,10.10
